createdAt,value
2019-05-23T00:00:58.781Z,16.80
2019-05-23T00:03:32.860Z,16.80
2019-05-23T00:06:07.005Z,16.80
2019-05-23T00:08:38.091Z,16.90
2019-05-23T00:11:29.063Z,16.90
2019-05-23T00:13:58.082Z,16.90
2019-05-23T00:16:28.760Z,16.80
2019-05-23T00:18:58.623Z,16.80
2019-05-23T00:21:28.502Z,16.80
2019-05-23T00:23:58.298Z,16.80
2019-05-23T00:26:29.343Z,16.80
2019-05-23T00:29:09.452Z,16.80
2019-05-23T00:31:45.262Z,16.80
2019-05-23T00:34:15.185Z,16.70
2019-05-23T00:37:04.555Z,16.80
2019-05-23T00:39:34.957Z,16.80
2019-05-23T00:42:04.583Z,16.70
2019-05-23T00:44:33.603Z,16.70
2019-05-23T00:47:02.618Z,16.70
2019-05-23T00:49:32.322Z,16.70
2019-05-23T00:52:01.731Z,16.70
2019-05-23T00:54:32.227Z,16.70
2019-05-23T00:57:02.402Z,16.70
2019-05-23T00:59:32.986Z,16.70
2019-05-23T01:02:02.711Z,16.60
2019-05-23T01:04:32.167Z,16.70
2019-05-23T01:07:01.918Z,16.70
2019-05-23T01:09:32.573Z,16.70
2019-05-23T01:12:02.415Z,16.70
2019-05-23T01:14:31.647Z,16.70
2019-05-23T01:17:01.984Z,16.60
2019-05-23T01:19:32.070Z,16.60
2019-05-23T01:22:03.942Z,16.60
2019-05-23T01:24:36.282Z,16.70
2019-05-23T01:27:07.446Z,16.60
2019-05-23T01:29:49.995Z,16.60
2019-05-23T01:32:56.220Z,16.50
2019-05-23T01:35:26.882Z,16.60
2019-05-23T01:37:56.679Z,16.50
2019-05-23T01:40:25.821Z,16.60
2019-05-23T01:42:55.574Z,16.50
2019-05-23T01:45:24.955Z,16.50
2019-05-23T01:47:53.931Z,16.50
2019-05-23T01:50:26.586Z,16.60
2019-05-23T01:52:55.626Z,16.50
2019-05-23T01:55:25.582Z,16.50
2019-05-23T01:57:54.570Z,16.50
2019-05-23T02:00:27.876Z,16.50
2019-05-23T02:02:58.002Z,16.40
2019-05-23T02:05:27.510Z,16.50
2019-05-23T02:07:57.415Z,16.40
2019-05-23T02:10:26.513Z,16.50
2019-05-23T02:12:56.575Z,16.50
2019-05-23T02:15:25.700Z,16.40
2019-05-23T02:17:54.685Z,16.50
2019-05-23T02:20:25.423Z,16.40
2019-05-23T02:22:55.599Z,16.40
2019-05-23T02:25:26.597Z,16.40
2019-05-23T02:27:55.547Z,16.40
2019-05-23T02:30:35.764Z,16.40
2019-05-23T02:32:57.083Z,16.30
2019-05-23T02:35:26.224Z,16.30
2019-05-23T02:38:20.700Z,16.30
2019-05-23T02:41:02.358Z,16.20
2019-05-23T02:43:32.169Z,16.20
2019-05-23T02:46:05.906Z,16.30
2019-05-23T02:48:41.457Z,16.30
2019-05-23T02:51:16.633Z,16.20
2019-05-23T02:53:49.834Z,16.20
2019-05-23T02:56:19.023Z,16.20
2019-05-23T02:59:35.350Z,16.20
2019-05-23T03:02:43.472Z,16.20
2019-05-23T03:05:14.545Z,16.20
2019-05-23T03:07:45.375Z,16.10
2019-05-23T03:10:16.781Z,16.10
2019-05-23T03:12:47.520Z,16.10
2019-05-23T03:15:17.009Z,16.10
2019-05-23T03:17:51.557Z,16.10
2019-05-23T03:20:21.418Z,16.10
2019-05-23T03:22:54.573Z,16.10
2019-05-23T03:26:16.533Z,16.10
2019-05-23T03:28:46.313Z,16.10
2019-05-23T03:31:29.675Z,16.00
2019-05-23T03:33:54.782Z,16.10
2019-05-23T03:36:25.735Z,16.00
2019-05-23T03:38:55.653Z,16.10
2019-05-23T03:41:25.484Z,16.00
2019-05-23T03:43:55.323Z,16.00
2019-05-23T03:46:27.107Z,16.00
2019-05-23T03:48:57.877Z,16.10
2019-05-23T03:51:27.512Z,16.10
2019-05-23T03:53:57.428Z,16.00
2019-05-23T03:56:26.911Z,16.00
2019-05-23T03:58:56.692Z,16.10
2019-05-23T04:01:46.194Z,16.10
2019-05-23T04:04:00.884Z,16.00
2019-05-23T04:06:30.166Z,16.00
2019-05-23T04:08:59.676Z,16.00
2019-05-23T04:11:28.893Z,16.00
2019-05-23T04:13:57.870Z,16.00
2019-05-23T04:16:30.514Z,16.00
2019-05-23T04:18:57.455Z,16.00
2019-05-23T04:21:26.459Z,16.00
2019-05-23T04:23:56.036Z,16.00
2019-05-23T04:26:25.027Z,16.10
2019-05-23T04:28:54.433Z,16.00
2019-05-23T04:31:23.746Z,16.00
2019-05-23T04:33:52.803Z,16.10
2019-05-23T04:36:21.801Z,16.10
2019-05-23T04:38:50.845Z,16.10
2019-05-23T04:41:19.795Z,16.10
2019-05-23T04:43:49.563Z,16.10
2019-05-23T04:46:18.569Z,16.20
2019-05-23T04:48:48.298Z,16.20
2019-05-23T04:51:17.425Z,16.20
2019-05-23T04:53:46.467Z,16.20
2019-05-23T04:56:15.781Z,16.20
2019-05-23T04:58:45.191Z,16.20
2019-05-23T05:01:14.646Z,16.30
2019-05-23T05:03:45.288Z,16.30
2019-05-23T05:06:14.755Z,16.30
2019-05-23T05:08:43.963Z,16.30
2019-05-23T05:11:13.081Z,16.30
2019-05-23T05:13:43.463Z,16.40
2019-05-23T05:16:12.592Z,16.40
2019-05-23T05:18:41.976Z,16.40
2019-05-23T05:21:10.991Z,16.50
2019-05-23T05:23:39.926Z,16.40
2019-05-23T05:26:13.103Z,16.50
2019-05-23T05:28:42.431Z,16.50
2019-05-23T05:31:11.539Z,16.50
2019-05-23T05:33:40.390Z,16.60
2019-05-23T05:36:09.439Z,16.70
2019-05-23T05:38:39.291Z,16.70
2019-05-23T05:41:08.389Z,17.00
2019-05-23T05:43:39.307Z,17.30
2019-05-23T05:46:08.463Z,17.60
2019-05-23T05:48:37.584Z,17.90
2019-05-23T05:51:06.622Z,18.20
2019-05-23T05:53:35.543Z,18.40
2019-05-23T05:56:06.128Z,18.60
2019-05-23T05:58:35.133Z,18.80
2019-05-23T06:01:07.397Z,18.90
2019-05-23T06:03:37.063Z,19.10
2019-05-23T06:06:24.363Z,19.30
2019-05-23T06:08:58.801Z,19.40
2019-05-23T06:11:29.005Z,19.60
2019-05-23T06:13:58.013Z,19.80
2019-05-23T06:16:28.209Z,19.80
2019-05-23T06:18:57.302Z,19.90
2019-05-23T06:21:28.823Z,20.00
2019-05-23T06:23:57.990Z,20.20
2019-05-23T06:26:27.106Z,20.30
2019-05-23T06:28:56.207Z,20.40
2019-05-23T06:31:25.931Z,20.50
2019-05-23T06:33:55.408Z,20.60
2019-05-23T06:36:25.634Z,20.70
2019-05-23T06:38:56.460Z,20.90
2019-05-23T06:41:26.850Z,21.10
2019-05-23T06:43:56.294Z,21.20
2019-05-23T06:46:25.369Z,21.30
2019-05-23T06:48:54.333Z,21.40
2019-05-23T06:51:23.864Z,21.30
2019-05-23T06:53:53.802Z,21.30
2019-05-23T06:56:23.529Z,21.30
2019-05-23T06:58:52.522Z,21.40
2019-05-23T07:01:21.923Z,21.50
2019-05-23T07:03:51.094Z,21.60
2019-05-23T07:06:23.136Z,21.50
2019-05-23T07:08:52.179Z,21.60
2019-05-23T07:11:23.418Z,21.90
2019-05-23T07:13:52.784Z,21.90
2019-05-23T07:16:21.974Z,22.00
2019-05-23T07:18:50.999Z,22.20
2019-05-23T07:21:20.943Z,22.20
2019-05-23T07:23:50.375Z,22.30
2019-05-23T07:26:19.527Z,22.40
2019-05-23T07:28:48.872Z,22.50
2019-05-23T07:31:18.233Z,22.60
2019-05-23T07:34:01.297Z,22.70
2019-05-23T07:36:17.916Z,22.70
2019-05-23T07:38:47.215Z,22.80
2019-05-23T07:41:16.703Z,22.80
2019-05-23T07:43:45.699Z,22.80
2019-05-23T07:46:14.787Z,22.90
2019-05-23T07:48:43.780Z,22.90
2019-05-23T07:51:12.841Z,23.00
2019-05-23T07:53:58.796Z,23.00
2019-05-23T07:56:28.632Z,23.00
2019-05-23T07:58:57.637Z,23.00
2019-05-23T08:01:28.734Z,23.10
2019-05-23T08:03:58.432Z,23.10
2019-05-23T08:06:27.740Z,23.10
2019-05-23T08:08:57.891Z,23.10
2019-05-23T08:11:27.509Z,23.20
2019-05-23T08:13:57.219Z,23.20
2019-05-23T08:16:26.197Z,23.20
2019-05-23T08:18:55.177Z,23.20
2019-05-23T08:21:24.671Z,23.20
2019-05-23T08:23:53.942Z,23.20
2019-05-23T08:26:23.755Z,23.20
2019-05-23T08:29:22.226Z,23.30
2019-05-23T08:31:25.023Z,23.30
2019-05-23T08:33:54.470Z,23.30
2019-05-23T08:36:24.255Z,23.30
2019-05-23T08:38:53.341Z,23.30
2019-05-23T08:41:22.528Z,23.30
2019-05-23T08:43:51.601Z,23.30
2019-05-23T08:46:20.578Z,23.40
2019-05-23T08:48:49.715Z,23.40
2019-05-23T08:51:18.658Z,23.40
2019-05-23T08:53:48.305Z,23.30
2019-05-23T08:56:19.761Z,23.30
2019-05-23T08:58:48.787Z,23.10
2019-05-23T09:01:18.491Z,23.00
2019-05-23T09:03:48.745Z,22.90
2019-05-23T09:06:17.720Z,22.90
2019-05-23T09:08:47.071Z,22.90
2019-05-23T09:11:17.639Z,22.90
2019-05-23T09:13:46.554Z,22.90
2019-05-23T09:16:16.132Z,22.80
2019-05-23T09:18:45.123Z,22.80
2019-05-23T09:21:14.814Z,22.80
2019-05-23T09:23:44.117Z,22.90
2019-05-23T09:26:14.072Z,22.90
2019-05-23T09:28:44.230Z,22.90
2019-05-23T09:31:13.829Z,22.90
2019-05-23T09:33:42.685Z,22.90
2019-05-23T09:36:11.617Z,22.80
2019-05-23T09:38:40.847Z,22.80
2019-05-23T09:41:10.489Z,22.90
2019-05-23T09:43:39.501Z,22.90
2019-05-23T09:46:08.423Z,22.90
2019-05-23T09:48:37.412Z,22.90
2019-05-23T09:51:06.428Z,23.00
2019-05-23T09:53:35.414Z,23.00
2019-05-23T09:56:04.767Z,23.00
2019-05-23T09:58:33.960Z,23.10
2019-05-23T10:01:04.606Z,23.20
2019-05-23T10:03:33.595Z,23.20
2019-05-23T10:06:02.735Z,23.20
2019-05-23T10:08:32.054Z,23.20
2019-05-23T10:11:01.095Z,23.20
2019-05-23T10:13:38.981Z,23.10
2019-05-23T10:16:10.960Z,23.00
2019-05-23T10:18:41.611Z,22.90
2019-05-23T10:21:10.998Z,22.70
2019-05-23T10:23:40.187Z,22.70
2019-05-23T10:26:10.135Z,22.60
2019-05-23T10:28:39.244Z,22.50
2019-05-23T10:31:09.963Z,22.40
2019-05-23T10:33:39.043Z,22.40
2019-05-23T10:36:07.955Z,22.30
2019-05-23T10:38:37.573Z,22.20
2019-05-23T10:41:06.590Z,22.20
2019-05-23T10:43:35.586Z,22.20
2019-05-23T10:46:05.082Z,22.20
2019-05-23T10:48:34.499Z,22.20
2019-05-23T10:51:03.651Z,22.20
2019-05-23T10:53:32.719Z,22.10
2019-05-23T10:56:01.651Z,22.10
2019-05-23T10:58:31.295Z,22.10
2019-05-23T11:01:00.292Z,22.10
2019-05-23T11:03:29.655Z,22.10
2019-05-23T11:06:13.095Z,22.10
2019-05-23T11:08:30.701Z,22.00
2019-05-23T11:11:00.865Z,22.00
2019-05-23T11:13:30.655Z,22.00
2019-05-23T11:15:59.795Z,21.90
2019-05-23T11:18:29.203Z,21.90
2019-05-23T11:20:58.430Z,21.90
2019-05-23T11:23:33.755Z,21.90
2019-05-23T11:26:03.160Z,21.90
2019-05-23T11:28:34.237Z,21.90
2019-05-23T11:31:04.854Z,21.90
2019-05-23T11:33:33.906Z,21.90
2019-05-23T11:36:03.609Z,21.90
2019-05-23T11:38:32.604Z,21.90
2019-05-23T11:41:01.758Z,21.90
2019-05-23T11:43:30.838Z,21.90
2019-05-23T11:46:04.215Z,21.90
2019-05-23T11:48:34.837Z,21.90
2019-05-23T11:51:03.825Z,21.90
2019-05-23T11:53:33.949Z,21.90
2019-05-23T11:56:02.908Z,21.90
2019-05-23T11:58:32.838Z,21.80
2019-05-23T12:01:20.895Z,21.80
2019-05-23T12:03:49.532Z,21.80
2019-05-23T12:06:19.513Z,21.80
2019-05-23T12:08:48.510Z,21.80
2019-05-23T12:11:17.970Z,21.80
2019-05-23T12:13:47.064Z,21.80
2019-05-23T12:16:17.228Z,21.80
2019-05-23T12:18:46.154Z,21.80
2019-05-23T12:21:15.159Z,21.70
2019-05-23T12:23:44.439Z,21.70
2019-05-23T12:26:13.455Z,21.70
2019-05-23T12:28:42.539Z,21.70
2019-05-23T12:31:11.894Z,21.70
2019-05-23T12:33:41.150Z,21.70
2019-05-23T12:36:13.201Z,21.70
2019-05-23T12:38:42.209Z,21.70
2019-05-23T12:41:12.933Z,21.70
2019-05-23T12:43:42.127Z,21.70
2019-05-23T12:46:11.198Z,21.70
2019-05-23T12:48:58.219Z,21.70
2019-05-23T12:51:29.456Z,21.60
2019-05-23T12:53:58.383Z,21.60
2019-05-23T12:56:28.010Z,21.50
2019-05-23T12:58:57.379Z,21.60
2019-05-23T13:01:27.947Z,21.50
2019-05-23T13:03:57.360Z,21.50
2019-05-23T13:06:26.870Z,21.50
2019-05-23T13:08:55.792Z,21.40
2019-05-23T13:11:25.147Z,21.40
2019-05-23T13:13:54.047Z,21.40
2019-05-23T13:16:24.022Z,21.40
2019-05-23T13:18:53.047Z,21.30
2019-05-23T13:21:22.126Z,21.30
2019-05-23T13:23:51.070Z,21.30
2019-05-23T13:26:20.650Z,21.30
2019-05-23T13:28:49.603Z,21.20
2019-05-23T13:31:18.595Z,21.20
2019-05-23T13:33:47.761Z,21.20
2019-05-23T13:36:17.653Z,21.20
2019-05-23T13:38:47.249Z,21.10
2019-05-23T13:41:16.715Z,21.10
2019-05-23T13:43:45.998Z,21.10
2019-05-23T13:46:14.993Z,21.10
2019-05-23T13:48:44.746Z,21.10
2019-05-23T13:51:13.978Z,21.10
2019-05-23T13:53:43.077Z,21.10
2019-05-23T13:56:12.096Z,21.10
2019-05-23T13:58:41.213Z,21.10
2019-05-23T14:01:11.615Z,21.10
2019-05-23T14:03:40.988Z,21.00
2019-05-23T14:06:11.189Z,21.00
2019-05-23T14:08:40.425Z,21.00
2019-05-23T14:11:10.149Z,21.00
2019-05-23T14:13:39.827Z,21.00
2019-05-23T14:16:09.663Z,20.90
2019-05-23T14:18:38.993Z,20.90
2019-05-23T14:21:08.240Z,20.90
2019-05-23T14:23:37.150Z,20.90
2019-05-23T14:26:06.471Z,20.90
2019-05-23T14:28:35.562Z,21.00
2019-05-23T14:31:13.882Z,21.00
2019-05-23T14:34:01.887Z,21.00
2019-05-23T14:36:45.725Z,21.00
2019-05-23T14:39:40.145Z,21.00
2019-05-23T14:42:31.614Z,21.00
2019-05-23T14:45:00.681Z,21.00
2019-05-23T14:47:55.632Z,21.00
2019-05-23T14:50:46.527Z,21.00
2019-05-23T14:53:18.606Z,21.00
2019-05-23T14:55:48.892Z,20.90
2019-05-23T14:58:17.937Z,20.90
2019-05-23T15:00:48.842Z,20.90
2019-05-23T15:03:18.452Z,20.90
2019-05-23T15:05:47.448Z,20.90
2019-05-23T15:08:16.525Z,20.80
2019-05-23T15:10:45.526Z,20.80
2019-05-23T15:13:14.616Z,20.80
2019-05-23T15:15:43.535Z,20.80
2019-05-23T15:18:12.547Z,20.80
2019-05-23T15:20:41.416Z,20.80
2019-05-23T15:23:10.430Z,20.80
2019-05-23T15:25:39.452Z,20.90
2019-05-23T15:28:08.469Z,20.80
2019-05-23T15:30:37.490Z,20.80
2019-05-23T15:33:06.579Z,20.80
2019-05-23T15:35:36.579Z,20.80
2019-05-23T15:38:05.637Z,20.90
2019-05-23T15:40:37.648Z,20.90
2019-05-23T15:43:09.784Z,20.90
2019-05-23T15:45:37.900Z,20.90
2019-05-23T15:48:07.253Z,20.90
2019-05-23T15:50:48.162Z,20.90
2019-05-23T15:53:33.459Z,20.90
2019-05-23T15:56:26.586Z,20.90
2019-05-23T15:58:58.380Z,20.90
2019-05-23T16:01:36.781Z,20.90
2019-05-23T16:04:13.922Z,20.90
2019-05-23T16:06:43.447Z,20.80
2019-05-23T16:09:28.465Z,20.80
2019-05-23T16:11:44.400Z,20.90
2019-05-23T16:14:14.475Z,20.80
2019-05-23T16:16:44.159Z,20.80
2019-05-23T16:19:13.392Z,20.90
2019-05-23T16:21:42.857Z,20.90
2019-05-23T16:24:12.926Z,20.80
2019-05-23T16:26:42.231Z,20.80
2019-05-23T16:29:12.801Z,20.80
2019-05-23T16:31:42.722Z,20.90
2019-05-23T16:34:11.739Z,20.80
2019-05-23T16:36:40.648Z,20.80
2019-05-23T16:39:09.728Z,20.80
2019-05-23T16:41:38.737Z,20.80
2019-05-23T16:44:07.770Z,20.80
2019-05-23T16:46:36.973Z,20.80
2019-05-23T16:49:05.982Z,20.80
2019-05-23T16:51:35.119Z,20.80
2019-05-23T16:54:05.547Z,20.70
2019-05-23T16:56:45.215Z,20.70
2019-05-23T16:59:37.779Z,20.70
2019-05-23T17:02:14.023Z,20.70
2019-05-23T17:05:08.490Z,20.70
2019-05-23T17:08:04.227Z,20.70
2019-05-23T17:10:41.529Z,20.60
2019-05-23T17:13:29.614Z,20.60
2019-05-23T17:16:15.638Z,20.60
2019-05-23T17:19:02.474Z,20.60
2019-05-23T17:21:53.066Z,20.60
2019-05-23T17:24:56.655Z,20.60
2019-05-23T17:27:39.798Z,20.60
2019-05-23T17:30:22.542Z,20.60
2019-05-23T17:32:52.028Z,20.50
2019-05-23T17:35:21.097Z,20.50
2019-05-23T17:37:50.113Z,20.50
2019-05-23T17:40:25.072Z,20.50
2019-05-23T17:42:50.065Z,20.50
2019-05-23T17:45:20.100Z,20.50
2019-05-23T17:47:49.162Z,20.50
2019-05-23T17:50:18.094Z,20.50
2019-05-23T17:52:47.102Z,20.50
2019-05-23T17:55:16.090Z,20.50
2019-05-23T17:57:45.107Z,20.40
2019-05-23T18:00:15.858Z,20.40
2019-05-23T18:02:45.502Z,20.40
2019-05-23T18:05:14.474Z,20.40
2019-05-23T18:07:44.316Z,20.40
2019-05-23T18:10:13.762Z,20.40
2019-05-23T18:12:42.762Z,20.40
2019-05-23T18:15:13.465Z,20.40
2019-05-23T18:17:42.379Z,20.40
2019-05-23T18:20:11.995Z,20.40
2019-05-23T18:22:41.278Z,20.40
2019-05-23T18:25:12.281Z,20.40
2019-05-23T18:27:41.980Z,20.40
2019-05-23T18:30:22.341Z,20.30
2019-05-23T18:32:53.221Z,20.30
2019-05-23T18:35:22.805Z,20.30
2019-05-23T18:37:51.754Z,20.30
2019-05-23T18:40:21.099Z,20.30
2019-05-23T18:42:50.642Z,20.30
2019-05-23T18:45:20.906Z,20.30
2019-05-23T18:47:49.742Z,20.30
2019-05-23T18:50:19.244Z,20.20
2019-05-23T18:52:51.609Z,20.20
2019-05-23T18:55:19.432Z,20.20
2019-05-23T18:57:48.367Z,20.20
2019-05-23T19:00:21.420Z,20.20
2019-05-23T19:02:50.614Z,20.20
2019-05-23T19:05:22.089Z,20.10
2019-05-23T19:07:53.315Z,20.10
2019-05-23T19:10:22.563Z,20.10
2019-05-23T19:12:51.559Z,20.10
2019-05-23T19:15:20.529Z,20.10
2019-05-23T19:17:49.358Z,20.10
2019-05-23T19:20:18.511Z,20.10
2019-05-23T19:22:47.630Z,20.00
2019-05-23T19:25:17.094Z,20.00
2019-05-23T19:27:46.260Z,20.00
2019-05-23T19:30:15.823Z,20.00
2019-05-23T19:32:44.878Z,19.90
2019-05-23T19:35:14.560Z,19.90
2019-05-23T19:37:43.647Z,19.90
2019-05-23T19:40:13.940Z,19.90
2019-05-23T19:42:42.954Z,19.90
2019-05-23T19:45:11.879Z,19.90
2019-05-23T19:47:40.871Z,19.90
2019-05-23T19:50:10.404Z,19.80
2019-05-23T19:52:39.272Z,19.80
2019-05-23T19:55:08.904Z,19.80
2019-05-23T19:57:38.627Z,19.70
2019-05-23T20:00:09.864Z,19.70
2019-05-23T20:02:47.559Z,19.70
2019-05-23T20:05:26.510Z,19.70
2019-05-23T20:07:55.870Z,19.60
2019-05-23T20:10:26.494Z,19.60
2019-05-23T20:12:55.624Z,19.60
2019-05-23T20:15:24.853Z,19.60
2019-05-23T20:17:54.068Z,19.60
2019-05-23T20:20:23.092Z,19.60
2019-05-23T20:22:51.981Z,19.50
2019-05-23T20:25:21.570Z,19.50
2019-05-23T20:27:50.606Z,19.50
2019-05-23T20:30:51.673Z,19.40
2019-05-23T20:33:20.752Z,19.50
2019-05-23T20:35:49.820Z,19.40
2019-05-23T20:38:19.175Z,19.40
2019-05-23T20:40:48.455Z,19.40
2019-05-23T20:43:17.443Z,19.30
2019-05-23T20:45:46.449Z,19.30
2019-05-23T20:48:15.433Z,19.30
2019-05-23T20:50:44.937Z,19.30
2019-05-23T20:53:13.955Z,19.30
2019-05-23T20:55:43.102Z,19.20
2019-05-23T20:58:12.006Z,19.20
2019-05-23T21:00:51.785Z,19.20
2019-05-23T21:03:21.951Z,19.20
2019-05-23T21:05:51.375Z,19.20
2019-05-23T21:08:20.232Z,19.20
2019-05-23T21:10:50.164Z,19.10
2019-05-23T21:13:19.173Z,19.10
2019-05-23T21:15:48.359Z,19.10
2019-05-23T21:18:17.377Z,19.10
2019-05-23T21:20:46.285Z,19.10
2019-05-23T21:23:15.258Z,19.00
2019-05-23T21:25:53.690Z,19.00
2019-05-23T21:28:22.778Z,19.00
2019-05-23T21:30:51.679Z,19.00
2019-05-23T21:33:20.578Z,18.90
2019-05-23T21:35:49.417Z,18.90
2019-05-23T21:38:18.359Z,18.90
2019-05-23T21:40:47.353Z,19.00
2019-05-23T21:43:16.287Z,18.90
2019-05-23T21:45:45.403Z,18.90
2019-05-23T21:48:14.317Z,18.90
2019-05-23T21:50:43.149Z,18.90
2019-05-23T21:53:12.639Z,18.90
2019-05-23T21:55:43.529Z,18.80
2019-05-23T21:58:14.395Z,18.80
2019-05-23T22:01:30.451Z,18.80
2019-05-23T22:04:18.557Z,18.80
2019-05-23T22:06:55.641Z,18.70
2019-05-23T22:09:24.744Z,18.70
2019-05-23T22:11:54.789Z,18.70
2019-05-23T22:14:23.763Z,18.70
2019-05-23T22:16:52.752Z,18.70
2019-05-23T22:19:23.228Z,18.70
2019-05-23T22:21:52.139Z,18.70
2019-05-23T22:24:21.632Z,18.70
2019-05-23T22:26:50.602Z,18.60
2019-05-23T22:29:19.563Z,18.60
2019-05-23T22:31:48.625Z,18.60
2019-05-23T22:34:36.506Z,18.60
2019-05-23T22:37:13.035Z,18.60
2019-05-23T22:39:41.986Z,18.60
2019-05-23T22:42:11.218Z,18.60
2019-05-23T22:44:40.149Z,18.60
2019-05-23T22:47:09.183Z,18.60
2019-05-23T22:49:38.148Z,18.60
2019-05-23T22:52:07.560Z,18.60
2019-05-23T22:54:36.399Z,18.50
2019-05-23T22:57:05.374Z,18.50
2019-05-23T22:59:34.362Z,18.50
2019-05-23T23:02:04.898Z,18.50
2019-05-23T23:04:33.759Z,18.50
2019-05-23T23:07:02.662Z,18.50
2019-05-23T23:09:31.586Z,18.50
2019-05-23T23:12:00.991Z,18.50
2019-05-23T23:14:29.854Z,18.50
2019-05-23T23:16:58.847Z,18.50
2019-05-23T23:19:27.787Z,18.50
2019-05-23T23:21:56.627Z,18.50
2019-05-23T23:24:25.818Z,18.50
2019-05-23T23:26:54.918Z,18.50
2019-05-23T23:29:23.934Z,18.50
2019-05-23T23:31:52.852Z,18.50
2019-05-23T23:34:21.813Z,18.50
2019-05-23T23:36:50.717Z,18.50
2019-05-23T23:39:19.702Z,18.50
2019-05-23T23:41:48.614Z,18.50
2019-05-23T23:44:18.371Z,18.40
2019-05-23T23:47:04.893Z,18.40
2019-05-23T23:49:51.694Z,18.40
2019-05-23T23:52:38.782Z,18.40
2019-05-23T23:55:25.747Z,18.30
2019-05-23T23:57:59.894Z,18.40
